createdAt,value
2018-01-03T00:02:09.607Z,81.76
2018-01-03T00:04:37.333Z,81.78
2018-01-03T00:07:03.217Z,82.21
2018-01-03T00:09:32.380Z,82.61
2018-01-03T00:11:58.223Z,82.89
2018-01-03T00:14:26.083Z,83.45
2018-01-03T00:16:51.887Z,83.64
2018-01-03T00:19:20.956Z,83.77
2018-01-03T00:21:46.828Z,84.33
2018-01-03T00:24:16.470Z,84.61
2018-01-03T00:26:42.402Z,85.11
2018-01-03T00:29:11.159Z,85.40
2018-01-03T00:31:36.972Z,85.58
2018-01-03T00:34:02.843Z,85.86
2018-01-03T00:36:28.674Z,86.27
2018-01-03T00:38:54.821Z,86.41
2018-01-03T00:41:23.501Z,86.75
2018-01-03T00:43:49.417Z,87.12
2018-01-03T00:46:17.016Z,87.56
2018-01-03T00:48:42.910Z,87.96
2018-01-03T00:51:12.026Z,88.38
2018-01-03T00:53:37.898Z,88.46
2018-01-03T00:56:07.129Z,88.36
2018-01-03T00:58:32.968Z,88.37
2018-01-03T01:01:01.906Z,88.60
2018-01-03T01:03:27.749Z,89.01
2018-01-03T01:05:55.320Z,89.32
2018-01-03T01:08:21.186Z,89.76
2018-01-03T01:10:47.033Z,90.00
2018-01-03T01:13:12.904Z,90.01
2018-01-03T01:15:38.803Z,89.77
2018-01-03T01:18:07.877Z,89.68
2018-01-03T01:20:33.742Z,89.67
2018-01-03T01:23:02.915Z,89.53
2018-01-03T01:25:28.779Z,89.45
2018-01-03T01:27:56.566Z,89.43
2018-01-03T01:30:22.461Z,89.45
2018-01-03T01:32:52.752Z,89.24
2018-01-03T01:35:18.633Z,89.12
2018-01-03T01:37:46.271Z,89.22
2018-01-03T01:40:12.212Z,89.15
2018-01-03T01:42:41.443Z,89.21
2018-01-03T01:45:07.315Z,89.14
2018-01-03T01:47:33.234Z,89.24
2018-01-03T01:49:59.126Z,89.35
2018-01-03T01:52:24.960Z,89.46
2018-01-03T01:54:52.568Z,89.50
2018-01-03T01:57:18.444Z,89.37
2018-01-03T01:59:47.800Z,89.52
2018-01-03T02:02:13.707Z,89.49
2018-01-03T02:04:43.436Z,89.62
2018-01-03T02:07:09.305Z,89.85
2018-01-03T02:09:38.653Z,89.89
2018-01-03T02:12:04.528Z,89.89
2018-01-03T02:14:31.609Z,90.18
2018-01-03T02:16:57.468Z,90.49
2018-01-03T02:19:27.574Z,90.73
2018-01-03T02:21:53.498Z,90.72
2018-01-03T02:24:19.309Z,90.71
2018-01-03T02:26:45.189Z,90.81
2018-01-03T02:29:11.078Z,90.96
2018-01-03T02:31:38.505Z,90.90
2018-01-03T02:34:04.443Z,91.11
2018-01-03T02:36:33.544Z,91.27
2018-01-03T02:38:59.391Z,91.86
2018-01-03T02:41:27.561Z,91.70
2018-01-03T02:43:53.429Z,91.96
2018-01-03T02:46:22.253Z,91.94
2018-01-03T02:48:48.140Z,91.94
2018-01-03T02:51:18.244Z,92.05
2018-01-03T02:53:44.115Z,92.16
2018-01-03T02:56:11.596Z,92.20
2018-01-03T02:58:37.446Z,92.23
2018-01-03T03:01:03.320Z,92.21
2018-01-03T03:03:29.225Z,92.10
2018-01-03T03:05:55.093Z,92.12
2018-01-03T03:08:24.688Z,92.39
2018-01-03T03:10:50.567Z,91.99
2018-01-03T03:13:19.678Z,91.82
2018-01-03T03:15:45.579Z,91.84
2018-01-03T03:18:12.908Z,91.78
2018-01-03T03:20:38.766Z,91.97
2018-01-03T03:23:07.446Z,91.86
2018-01-03T03:25:33.292Z,91.72
2018-01-03T03:28:02.769Z,91.90
2018-01-03T03:30:28.641Z,91.71
2018-01-03T03:32:58.423Z,91.72
2018-01-03T03:35:24.325Z,92.06
2018-01-03T03:37:50.179Z,92.36
2018-01-03T03:40:16.006Z,91.07
2018-01-03T03:42:41.902Z,90.19
2018-01-03T03:45:08.793Z,89.36
2018-01-03T03:47:34.677Z,88.54
2018-01-03T03:50:04.059Z,88.05
2018-01-03T03:52:29.944Z,87.42
2018-01-03T03:54:59.046Z,87.06
2018-01-03T03:57:24.924Z,86.29
2018-01-03T03:59:53.890Z,86.02
2018-01-03T04:02:19.726Z,85.81
2018-01-03T04:04:47.378Z,85.78
2018-01-03T04:07:13.264Z,85.25
2018-01-03T04:09:42.184Z,84.92
2018-01-03T04:12:08.060Z,84.14
2018-01-03T04:14:33.922Z,83.69
2018-01-03T04:16:59.815Z,83.19
2018-01-03T04:19:25.680Z,82.98
2018-01-03T04:21:54.442Z,82.89
2018-01-03T04:24:20.300Z,82.72
2018-01-03T04:26:49.599Z,82.53
2018-01-03T04:29:15.459Z,82.47
2018-01-03T04:31:44.931Z,82.69
2018-01-03T04:34:10.842Z,82.62
2018-01-03T04:36:39.832Z,82.96
2018-01-03T04:39:05.707Z,82.78
2018-01-03T04:41:33.172Z,82.59
2018-01-03T04:43:59.069Z,82.44
2018-01-03T04:46:28.363Z,82.39
2018-01-03T04:48:54.219Z,82.43
2018-01-03T04:51:20.119Z,82.89
2018-01-03T04:53:46.017Z,83.16
2018-01-03T04:56:11.915Z,83.91
2018-01-03T04:58:39.348Z,84.64
2018-01-03T05:01:05.186Z,85.60
2018-01-03T05:03:34.551Z,86.59
2018-01-03T05:06:00.435Z,87.07
2018-01-03T05:08:28.841Z,87.50
2018-01-03T05:10:54.688Z,87.67
2018-01-03T05:13:27.398Z,88.70
2018-01-03T05:15:53.253Z,90.11
2018-01-03T05:18:19.184Z,91.13
2018-01-03T05:20:45.049Z,91.58
2018-01-03T05:23:14.317Z,91.67
2018-01-03T05:25:40.211Z,91.36
2018-01-03T05:28:06.106Z,90.95
2018-01-03T05:30:31.985Z,90.82
2018-01-03T05:32:57.852Z,90.00
2018-01-03T05:35:25.142Z,89.99
2018-01-03T05:37:51.017Z,89.49
2018-01-03T05:40:20.348Z,89.11
2018-01-03T05:42:46.181Z,88.04
2018-01-03T05:45:14.249Z,87.00
2018-01-03T05:47:40.144Z,86.68
2018-01-03T05:50:09.745Z,85.73
2018-01-03T05:52:35.588Z,85.30
2018-01-03T05:55:03.505Z,84.83
2018-01-03T05:57:29.369Z,84.36
2018-01-03T05:59:58.448Z,84.02
2018-01-03T06:02:24.354Z,83.88
2018-01-03T06:04:50.208Z,84.03
2018-01-03T06:07:16.102Z,85.58
2018-01-03T06:09:41.950Z,86.07
2018-01-03T06:12:09.651Z,87.68
2018-01-03T06:14:35.493Z,88.41
2018-01-03T06:19:32.274Z,88.30
2018-01-03T06:21:59.776Z,88.01
2018-01-03T06:24:25.654Z,88.16
2018-01-03T06:26:54.766Z,88.05
2018-01-03T06:29:20.690Z,88.29
2018-01-03T06:31:48.871Z,87.78
2018-01-03T06:34:14.773Z,86.67
2018-01-03T06:36:44.454Z,85.74
2018-01-03T06:39:10.291Z,85.47
2018-01-03T06:41:36.210Z,84.75
2018-01-03T06:44:02.113Z,84.11
2018-01-03T06:46:28.020Z,83.85
2018-01-03T06:48:57.190Z,83.64
2018-01-03T06:51:23.061Z,81.78
2018-01-03T06:53:50.224Z,80.26
2018-01-03T06:56:16.100Z,81.00
2018-01-03T06:58:44.428Z,82.23
2018-01-03T07:01:10.308Z,83.99
2018-01-03T07:03:39.236Z,84.28
2018-01-03T07:06:05.144Z,85.75
2018-01-03T07:08:34.060Z,86.38
2018-01-03T07:10:59.948Z,87.69
2018-01-03T07:13:28.778Z,89.66
2018-01-03T07:15:54.691Z,89.62
2018-01-03T07:18:20.574Z,89.89
2018-01-03T07:20:46.419Z,89.66
2018-01-03T07:23:12.306Z,90.46
2018-01-03T07:25:41.970Z,84.71
2018-01-03T07:28:07.821Z,87.75
2018-01-03T07:30:36.913Z,89.66
2018-01-03T07:33:02.782Z,90.50
2018-01-03T07:35:30.190Z,91.11
2018-01-03T07:37:56.076Z,91.27
2018-01-03T07:40:25.117Z,91.24
2018-01-03T07:42:51.007Z,92.51
2018-01-03T07:45:20.151Z,92.82
2018-01-03T07:47:45.945Z,92.31
2018-01-03T07:50:15.051Z,91.53
2018-01-03T07:52:40.889Z,92.50
2018-01-03T07:55:06.739Z,92.62
2018-01-03T07:57:32.601Z,92.68
2018-01-03T07:59:58.437Z,92.44
2018-01-03T08:02:25.805Z,92.76
2018-01-03T08:04:51.680Z,92.56
2018-01-03T08:07:20.780Z,93.40
2018-01-03T08:09:46.656Z,92.95
2018-01-03T08:12:15.790Z,93.13
2018-01-03T08:14:41.621Z,93.32
2018-01-03T08:17:11.390Z,93.50
2018-01-03T08:19:37.236Z,93.32
2018-01-03T08:22:06.588Z,94.01
2018-01-03T08:24:32.471Z,93.93
2018-01-03T08:26:59.662Z,94.19
2018-01-03T08:29:25.485Z,94.54
2018-01-03T08:31:51.359Z,94.42
2018-01-03T08:34:17.172Z,94.53
2018-01-03T08:36:43.015Z,94.97
2018-01-03T08:39:11.019Z,94.76
2018-01-03T08:41:36.857Z,94.81
2018-01-03T08:44:05.611Z,94.89
2018-01-03T08:46:31.466Z,94.76
2018-01-03T08:49:00.287Z,94.78
2018-01-03T08:51:26.192Z,94.58
2018-01-03T08:53:55.410Z,94.58
2018-01-03T08:56:21.298Z,94.83
2018-01-03T08:58:49.915Z,94.79
2018-01-03T09:01:15.741Z,94.51
2018-01-03T09:03:45.240Z,95.16
2018-01-03T09:06:11.184Z,95.54
2018-01-03T09:08:37.015Z,93.46
2018-01-03T09:11:02.880Z,94.06
2018-01-03T09:13:28.772Z,90.99
2018-01-03T09:15:58.151Z,91.44
2018-01-03T09:18:23.998Z,91.33
2018-01-03T09:20:51.590Z,91.26
2018-01-03T09:23:17.423Z,92.46
2018-01-03T09:25:46.557Z,93.19
2018-01-03T09:28:12.369Z,93.02
2018-01-03T09:30:40.819Z,93.83
2018-01-03T09:33:06.671Z,93.62
2018-01-03T09:35:36.021Z,94.31
2018-01-03T09:38:01.870Z,93.26
2018-01-03T09:40:30.822Z,91.67
2018-01-03T09:42:56.672Z,91.77
2018-01-03T09:45:22.543Z,91.90
2018-01-03T09:47:48.413Z,91.71
2018-01-03T09:50:14.313Z,92.27
2018-01-03T09:52:43.435Z,90.76
2018-01-03T09:55:09.307Z,90.08
2018-01-03T09:57:36.832Z,90.54
2018-01-03T10:00:02.695Z,90.55
2018-01-03T10:02:32.031Z,91.19
2018-01-03T10:04:57.916Z,90.42
2018-01-03T10:07:25.907Z,91.51
2018-01-03T10:09:51.750Z,92.00
2018-01-03T10:12:21.303Z,90.75
2018-01-03T10:14:47.115Z,91.75
2018-01-03T10:17:16.617Z,91.94
2018-01-03T10:19:42.477Z,92.80
2018-01-03T10:22:08.312Z,91.96
2018-01-03T10:24:34.169Z,92.09
2018-01-03T10:27:00.054Z,91.84
2018-01-03T10:29:28.910Z,92.53
2018-01-03T10:31:54.735Z,91.11
2018-01-03T10:34:21.933Z,90.30
2018-01-03T10:36:47.792Z,90.01
2018-01-03T10:39:17.607Z,88.54
2018-01-03T10:41:43.492Z,87.70
2018-01-03T10:44:11.748Z,86.70
2018-01-03T10:46:37.630Z,86.45
2018-01-03T10:49:07.297Z,87.19
2018-01-03T10:51:33.197Z,86.43
2018-01-03T10:54:02.482Z,86.76
2018-01-03T10:56:28.344Z,87.20
2018-01-03T10:58:54.219Z,86.56
2018-01-03T11:01:20.077Z,87.31
2018-01-03T11:03:46.095Z,88.34
2018-01-03T11:06:13.066Z,87.80
2018-01-03T11:08:38.886Z,86.66
2018-01-03T11:11:06.818Z,86.74
2018-01-03T11:13:32.670Z,85.82
2018-01-03T11:18:29.484Z,81.32
2018-01-03T11:20:56.572Z,74.94
2018-01-03T11:23:22.426Z,75.79
2018-01-03T11:25:52.056Z,74.13
2018-01-03T11:28:17.890Z,75.44
2018-01-03T11:30:46.903Z,75.45
2018-01-03T11:33:12.769Z,75.40
2018-01-03T11:35:38.635Z,74.78
2018-01-03T11:38:04.504Z,73.19
2018-01-03T11:40:30.340Z,75.54
2018-01-03T11:42:57.856Z,76.65
2018-01-03T11:45:23.698Z,78.31
2018-01-03T11:47:53.278Z,76.51
2018-01-03T11:50:19.157Z,75.35
2018-01-03T11:52:47.990Z,77.14
2018-01-03T11:55:13.855Z,79.43
2018-01-03T11:57:41.794Z,80.03
2018-01-03T12:00:07.638Z,79.66
2018-01-03T12:02:36.527Z,80.08
2018-01-03T12:05:02.385Z,79.63
2018-01-03T12:07:32.008Z,79.57
2018-01-03T12:09:57.886Z,78.30
2018-01-03T12:12:23.740Z,78.95
2018-01-03T12:14:49.638Z,79.25
2018-01-03T12:17:15.478Z,79.59
2018-01-03T12:19:42.956Z,78.06
2018-01-03T12:22:08.853Z,78.26
2018-01-03T12:24:38.910Z,77.93
2018-01-03T12:27:04.772Z,77.07
2018-01-03T12:29:32.480Z,76.53
2018-01-03T12:31:58.366Z,76.02
2018-01-03T12:34:27.815Z,72.54
2018-01-03T12:36:53.788Z,73.49
2018-01-03T12:39:23.183Z,73.40
2018-01-03T12:41:49.007Z,71.71
2018-01-03T12:44:16.736Z,71.87
2018-01-03T12:46:42.568Z,71.78
2018-01-03T12:49:08.488Z,71.10
2018-01-03T12:51:34.327Z,70.85
2018-01-03T12:54:00.222Z,71.14
2018-01-03T12:56:29.759Z,70.12
2018-01-03T12:58:55.616Z,70.50
2018-01-03T13:01:23.033Z,70.11
2018-01-03T13:03:49.529Z,70.08
2018-01-03T13:06:19.243Z,68.75
2018-01-03T13:08:45.090Z,68.75
2018-01-03T13:11:12.561Z,66.64
2018-01-03T13:13:38.405Z,65.24
2018-01-03T13:16:07.505Z,64.46
2018-01-03T13:18:33.319Z,62.48
2018-01-03T13:21:02.674Z,64.88
2018-01-03T13:23:28.487Z,64.26
2018-01-03T13:25:55.002Z,63.76
2018-01-03T13:28:20.861Z,63.80
2018-01-03T13:30:46.698Z,63.04
2018-01-03T13:33:14.337Z,63.36
2018-01-03T13:35:40.174Z,63.79
2018-01-03T13:38:09.608Z,64.01
2018-01-03T13:40:35.436Z,64.29
2018-01-03T13:43:03.256Z,64.31
2018-01-03T13:45:29.095Z,64.42
2018-01-03T13:47:58.291Z,62.10
2018-01-03T13:50:24.149Z,63.44
2018-01-03T13:52:53.376Z,63.91
2018-01-03T13:55:19.226Z,62.22
2018-01-03T13:57:48.571Z,63.62
2018-01-03T14:00:14.412Z,63.50
2018-01-03T14:02:40.319Z,63.94
2018-01-03T14:05:06.175Z,62.58
2018-01-03T14:07:32.021Z,63.97
2018-01-03T14:09:59.469Z,63.34
2018-01-03T14:12:25.301Z,62.98
2018-01-03T14:14:54.981Z,62.62
2018-01-03T14:17:20.841Z,62.58
2018-01-03T14:19:48.338Z,63.42
2018-01-03T14:22:14.183Z,64.96
2018-01-03T14:24:44.353Z,63.38
2018-01-03T14:27:10.162Z,61.85
2018-01-03T14:29:37.925Z,62.92
2018-01-03T14:32:03.795Z,63.81
2018-01-03T14:34:32.681Z,65.12
2018-01-03T14:36:58.505Z,65.17
2018-01-03T14:39:24.322Z,64.39
2018-01-03T14:41:50.195Z,64.23
2018-01-03T14:44:16.032Z,64.60
2018-01-03T14:46:45.213Z,65.22
2018-01-03T14:49:11.042Z,65.63
2018-01-03T14:51:39.058Z,65.37
2018-01-03T14:54:04.893Z,65.91
2018-01-03T14:56:33.539Z,67.01
2018-01-03T14:58:59.392Z,66.87
2018-01-03T15:01:28.849Z,67.23
2018-01-03T15:03:55.647Z,66.61
2018-01-03T15:06:23.112Z,66.45
2018-01-03T15:08:48.969Z,66.43
2018-01-03T15:11:17.512Z,66.92
2018-01-03T15:13:43.399Z,67.28
2018-01-03T15:16:09.305Z,67.12
2018-01-03T15:18:35.166Z,66.67
2018-01-03T15:21:01.018Z,67.43
2018-01-03T15:23:32.728Z,67.47
2018-01-03T15:25:58.575Z,67.34
2018-01-03T15:28:24.442Z,67.29
2018-01-03T15:30:50.285Z,66.41
2018-01-03T15:33:19.175Z,66.45
2018-01-03T15:35:45.073Z,66.28
2018-01-03T15:38:14.497Z,66.72
2018-01-03T15:40:40.336Z,67.11
2018-01-03T15:43:09.350Z,67.15
2018-01-03T15:45:35.203Z,67.34
2018-01-03T15:48:07.442Z,66.88
2018-01-03T15:50:33.335Z,67.11
2018-01-03T15:52:59.236Z,66.94
2018-01-03T15:55:25.064Z,67.16
2018-01-03T15:57:50.891Z,70.69
2018-01-03T16:00:16.778Z,73.18
2018-01-03T16:02:42.687Z,75.97
2018-01-03T16:05:10.345Z,78.84
2018-01-03T16:07:36.209Z,80.58
2018-01-03T16:10:05.328Z,82.08
2018-01-03T16:12:31.202Z,81.03
2018-01-03T16:15:00.068Z,82.42
2018-01-03T16:17:26.011Z,81.61
2018-01-03T16:19:55.202Z,81.30
2018-01-03T16:22:21.069Z,80.04
2018-01-03T16:24:50.436Z,75.61
2018-01-03T16:27:16.283Z,73.36
2018-01-03T16:29:42.151Z,71.79
2018-01-03T16:32:08.068Z,69.07
2018-01-03T16:34:33.982Z,67.83
2018-01-03T16:37:00.388Z,68.05
2018-01-03T16:39:26.285Z,66.75
2018-01-03T16:41:55.695Z,65.93
2018-01-03T16:44:21.589Z,65.90
2018-01-03T16:46:49.682Z,65.94
2018-01-03T16:49:15.530Z,66.25
2018-01-03T16:51:51.016Z,65.69
2018-01-03T16:54:16.896Z,65.17
2018-01-03T16:56:42.812Z,64.90
2018-01-03T16:59:08.697Z,65.09
2018-01-03T17:01:34.599Z,64.98
2018-01-03T17:04:00.543Z,64.03
2018-01-03T17:06:26.438Z,64.73
2018-01-03T17:08:52.307Z,64.13
2018-01-03T17:11:18.159Z,64.15
2018-01-03T17:13:46.082Z,64.63
2018-01-03T17:16:11.952Z,64.29
2018-01-03T17:18:40.862Z,65.06
2018-01-03T17:21:06.736Z,64.87
2018-01-03T17:23:35.010Z,65.04
2018-01-03T17:26:00.908Z,65.55
2018-01-03T17:28:30.852Z,65.49
2018-01-03T17:30:56.715Z,65.33
2018-01-03T17:33:25.507Z,65.60
2018-01-03T17:35:51.373Z,65.91
2018-01-03T17:38:20.654Z,65.83
2018-01-03T17:40:46.507Z,65.57
2018-01-03T17:43:12.411Z,66.30
2018-01-03T17:45:38.290Z,67.00
2018-01-03T17:48:04.204Z,66.95
2018-01-03T17:50:31.085Z,66.81
2018-01-03T17:52:56.937Z,66.75
2018-01-03T17:55:26.417Z,66.93
2018-01-03T17:57:52.301Z,66.73
2018-01-03T18:00:21.111Z,67.03
2018-01-03T18:02:47.034Z,67.84
2018-01-03T18:05:14.756Z,67.20
2018-01-03T18:07:40.668Z,67.17
2018-01-03T18:10:09.636Z,67.19
2018-01-03T18:12:35.520Z,67.05
2018-01-03T18:17:51.532Z,67.43
2018-01-03T18:20:17.398Z,67.11
2018-01-03T18:22:43.248Z,67.29
2018-01-03T18:25:09.100Z,66.54
2018-01-03T18:30:26.889Z,67.96
2018-01-03T18:32:52.724Z,67.70
2018-01-03T18:35:18.571Z,67.76
2018-01-03T18:37:44.372Z,68.15
2018-01-03T18:40:10.231Z,67.66
2018-01-03T18:42:36.073Z,67.50
2018-01-03T18:45:01.957Z,67.16
2018-01-03T18:47:27.806Z,67.85
2018-01-03T18:49:53.629Z,69.49
2018-01-03T18:52:19.459Z,70.19
2018-01-03T18:54:45.298Z,69.73
2018-01-03T18:57:11.116Z,69.40
2018-01-03T18:59:36.943Z,67.83
2018-01-03T19:02:02.833Z,66.48
2018-01-03T19:04:28.632Z,66.42
2018-01-03T19:06:54.474Z,66.71
2018-01-03T19:09:20.334Z,66.50
2018-01-03T19:11:46.182Z,65.73
2018-01-03T19:14:11.997Z,66.36
2018-01-03T19:16:37.840Z,66.59
2018-01-03T19:19:03.682Z,65.75
2018-01-03T19:21:29.551Z,65.91
2018-01-03T19:23:55.369Z,65.72
2018-01-03T19:26:21.197Z,66.41
2018-01-03T19:28:47.054Z,66.89
2018-01-03T19:31:12.901Z,66.71
2018-01-03T19:33:38.716Z,67.05
2018-01-03T19:36:04.563Z,66.34
2018-01-03T19:38:30.385Z,66.05
2018-01-03T19:40:56.238Z,66.20
2018-01-03T19:43:22.059Z,66.44
2018-01-03T19:45:47.902Z,67.31
2018-01-03T19:48:13.746Z,66.83
2018-01-03T19:50:39.603Z,68.14
2018-01-03T19:53:05.421Z,67.67
2018-01-03T19:55:31.252Z,67.12
2018-01-03T19:57:57.094Z,68.06
2018-01-03T20:00:26.068Z,67.96
2018-01-03T20:02:51.874Z,67.10
2018-01-03T20:05:21.503Z,68.10
2018-01-03T20:07:47.345Z,68.39
2018-01-03T20:10:13.218Z,66.81
2018-01-03T20:12:39.069Z,66.91
2018-01-03T20:15:04.878Z,67.33
2018-01-03T20:17:32.520Z,66.98
2018-01-03T20:19:58.360Z,66.65
2018-01-03T20:22:26.749Z,67.76
2018-01-03T20:24:52.585Z,68.34
2018-01-03T20:27:21.207Z,68.16
2018-01-03T20:29:47.030Z,67.73
2018-01-03T20:34:43.753Z,67.44
2018-01-03T20:37:11.118Z,67.38
2018-01-03T20:39:36.913Z,67.60
2018-01-03T20:42:06.518Z,67.91
2018-01-03T20:44:32.366Z,67.51
2018-01-03T20:46:58.234Z,67.04
2018-01-03T20:49:24.087Z,66.90
2018-01-03T20:51:49.907Z,66.60
2018-01-03T20:54:17.169Z,66.55
2018-01-03T20:56:43.034Z,66.25
2018-01-03T20:59:12.433Z,66.20
2018-01-03T21:01:38.260Z,66.19
2018-01-03T21:04:07.335Z,67.02
2018-01-03T21:06:33.159Z,67.38
2018-01-03T21:09:03.006Z,66.89
2018-01-03T21:11:28.819Z,66.65
2018-01-03T21:13:56.117Z,67.37
2018-01-03T21:16:21.925Z,67.23
2018-01-03T21:18:50.937Z,67.01
2018-01-03T21:21:16.735Z,66.28
2018-01-03T21:23:42.570Z,66.45
2018-01-03T21:26:08.401Z,66.59
2018-01-03T21:28:34.257Z,66.57
2018-01-03T21:31:03.504Z,66.79
2018-01-03T21:33:29.354Z,67.01
2018-01-03T21:35:57.139Z,66.81
2018-01-03T21:38:22.936Z,66.00
2018-01-03T21:43:19.503Z,67.15
2018-01-03T21:45:46.868Z,67.91
2018-01-03T21:48:12.711Z,68.78
2018-01-03T21:50:42.352Z,69.57
2018-01-03T21:53:08.228Z,69.80
2018-01-03T21:55:37.715Z,70.44
2018-01-03T21:58:03.533Z,72.46
2018-01-03T22:00:29.355Z,75.02
2018-01-03T22:02:55.174Z,76.02
2018-01-03T22:05:21.048Z,74.70
2018-01-03T22:07:48.082Z,74.10
2018-01-03T22:10:13.901Z,73.65
2018-01-03T22:12:43.519Z,72.82
2018-01-03T22:15:09.341Z,73.48
2018-01-03T22:17:38.268Z,73.87
2018-01-03T22:20:04.093Z,77.11
2018-01-03T22:22:33.674Z,78.99
2018-01-03T22:24:59.481Z,81.04
2018-01-03T22:27:28.667Z,82.63
2018-01-03T22:29:54.488Z,83.29
2018-01-03T22:32:21.846Z,82.95
2018-01-03T22:34:47.734Z,82.78
2018-01-03T22:37:13.608Z,81.69
2018-01-03T22:39:39.418Z,80.60
2018-01-03T22:42:05.262Z,79.94
2018-01-03T22:44:33.536Z,80.18
2018-01-03T22:46:59.377Z,78.66
2018-01-03T22:49:28.808Z,79.21
2018-01-03T22:51:54.609Z,78.17
2018-01-03T22:54:25.499Z,78.40
2018-01-03T22:56:51.378Z,76.86
2018-01-03T22:59:18.227Z,76.77
2018-01-03T23:01:44.056Z,76.92
2018-01-03T23:04:13.407Z,74.96
2018-01-03T23:06:39.238Z,74.56
2018-01-03T23:09:07.989Z,74.59
2018-01-03T23:11:33.818Z,73.19
2018-01-03T23:13:59.684Z,73.46
2018-01-03T23:16:25.497Z,73.45
2018-01-03T23:18:51.302Z,73.55
2018-01-03T23:21:19.134Z,73.68
2018-01-03T23:23:44.952Z,73.42
2018-01-03T23:26:13.985Z,73.52
2018-01-03T23:28:39.803Z,73.15
2018-01-03T23:31:09.411Z,73.35
2018-01-03T23:33:35.253Z,73.51
2018-01-03T23:36:04.480Z,72.82
2018-01-03T23:38:30.280Z,72.95
2018-01-03T23:40:57.723Z,72.61
2018-01-03T23:43:23.535Z,72.45
2018-01-03T23:45:52.961Z,72.09
2018-01-03T23:48:18.853Z,72.21
2018-01-03T23:50:44.713Z,71.78
2018-01-03T23:53:10.566Z,72.18
2018-01-03T23:55:36.394Z,72.06
2018-01-03T23:58:05.202Z,72.48
